createdAt,value
2018-12-17T00:00:41.987Z,1004.41
2018-12-17T00:01:41.986Z,1004.43
2018-12-17T00:02:41.985Z,1004.37
2018-12-17T00:03:41.950Z,1004.37
2018-12-17T00:04:41.937Z,1004.36
2018-12-17T00:05:42.086Z,1004.41
2018-12-17T00:06:41.925Z,1004.37
2018-12-17T00:07:41.948Z,1004.40
2018-12-17T00:08:41.904Z,1004.36
2018-12-17T00:09:41.912Z,1004.40
2018-12-17T00:10:41.873Z,1004.39
2018-12-17T00:11:41.863Z,1004.37
2018-12-17T00:12:41.885Z,1004.48
2018-12-17T00:13:41.859Z,1004.40
2018-12-17T00:14:41.830Z,1004.40
2018-12-17T00:15:41.833Z,1004.42
2018-12-17T00:16:41.806Z,1004.38
2018-12-17T00:17:41.810Z,1004.40
2018-12-17T00:18:41.797Z,1004.35
2018-12-17T00:19:41.802Z,1004.36
2018-12-17T00:20:41.799Z,1004.34
2018-12-17T00:21:41.769Z,1004.33
2018-12-17T00:22:41.775Z,1004.37
2018-12-17T00:23:41.750Z,1004.40
2018-12-17T00:24:41.725Z,1004.37
2018-12-17T00:25:41.742Z,1004.39
2018-12-17T00:26:41.705Z,1004.42
2018-12-17T00:27:41.684Z,1004.42
2018-12-17T00:28:41.695Z,1004.40
2018-12-17T00:29:41.693Z,1004.42
2018-12-17T00:30:41.671Z,1004.39
2018-12-17T00:31:41.641Z,1004.42
2018-12-17T00:32:41.638Z,1004.41
2018-12-17T00:33:41.641Z,1004.43
2018-12-17T00:34:41.609Z,1004.39
2018-12-17T00:35:41.611Z,1004.40
2018-12-17T00:36:41.607Z,1004.35
2018-12-17T00:37:41.578Z,1004.43
2018-12-17T00:38:41.579Z,1004.40
2018-12-17T00:39:41.556Z,1004.37
2018-12-17T00:40:41.544Z,1004.36
2018-12-17T00:41:41.531Z,1004.33
2018-12-17T00:42:41.540Z,1004.35
2018-12-17T00:43:41.549Z,1004.34
2018-12-17T00:44:41.546Z,1004.34
2018-12-17T00:45:41.517Z,1004.32
2018-12-17T00:46:41.495Z,1004.31
2018-12-17T00:47:41.470Z,1004.40
2018-12-17T00:48:41.476Z,1004.38
2018-12-17T00:49:41.461Z,1004.35
2018-12-17T00:50:41.453Z,1004.33
2018-12-17T00:51:41.433Z,1004.38
2018-12-17T00:52:41.410Z,1004.38
2018-12-17T00:53:41.410Z,1004.38
2018-12-17T00:54:41.417Z,1004.39
2018-12-17T00:55:41.395Z,1004.35
2018-12-17T00:56:41.384Z,1004.37
2018-12-17T00:57:41.355Z,1004.36
2018-12-17T00:58:41.360Z,1004.33
2018-12-17T00:59:41.345Z,1004.38
2018-12-17T01:00:41.331Z,1004.37
2018-12-17T01:01:41.314Z,1004.31
2018-12-17T01:02:41.299Z,1004.30
2018-12-17T01:03:41.326Z,1004.37
2018-12-17T01:04:41.282Z,1004.33
2018-12-17T01:05:41.290Z,1004.33
2018-12-17T01:06:41.260Z,1004.31
2018-12-17T01:07:41.266Z,1004.32
2018-12-17T01:08:41.256Z,1004.29
2018-12-17T01:09:41.225Z,1004.33
2018-12-17T01:10:41.222Z,1004.29
2018-12-17T01:11:41.225Z,1004.29
2018-12-17T01:12:41.196Z,1004.35
2018-12-17T01:13:41.215Z,1004.35
2018-12-17T01:14:41.170Z,1004.32
2018-12-17T01:15:41.156Z,1004.30
2018-12-17T01:16:41.165Z,1004.37
2018-12-17T01:17:41.155Z,1004.36
2018-12-17T01:18:41.133Z,1004.37
2018-12-17T01:19:41.127Z,1004.40
2018-12-17T01:20:41.132Z,1004.40
2018-12-17T01:21:41.092Z,1004.42
2018-12-17T01:22:41.088Z,1004.41
2018-12-17T01:23:41.095Z,1004.47
2018-12-17T01:24:41.062Z,1004.44
2018-12-17T01:25:41.064Z,1004.46
2018-12-17T01:26:41.073Z,1004.49
2018-12-17T01:27:41.036Z,1004.52
2018-12-17T01:28:41.045Z,1004.51
2018-12-17T01:29:41.003Z,1004.47
2018-12-17T01:30:40.997Z,1004.53
2018-12-17T01:31:40.988Z,1004.55
2018-12-17T01:32:40.976Z,1004.56
2018-12-17T01:33:40.972Z,1004.56
2018-12-17T01:34:40.963Z,1004.60
2018-12-17T01:35:40.940Z,1004.62
2018-12-17T01:36:40.948Z,1004.59
2018-12-17T01:37:41.026Z,1004.66
2018-12-17T01:38:40.929Z,1004.66
2018-12-17T01:39:40.898Z,1004.60
2018-12-17T01:40:40.879Z,1004.58
2018-12-17T01:41:40.875Z,1004.60
2018-12-17T01:42:40.861Z,1004.58
2018-12-17T01:43:40.867Z,1004.56
2018-12-17T01:44:40.843Z,1004.65
2018-12-17T01:45:40.827Z,1004.60
2018-12-17T01:46:40.848Z,1004.64
2018-12-17T01:47:40.813Z,1004.70
2018-12-17T01:48:40.829Z,1004.74
2018-12-17T01:49:40.780Z,1004.68
2018-12-17T01:50:40.775Z,1004.62
2018-12-17T01:51:40.793Z,1004.67
2018-12-17T01:52:40.748Z,1004.67
2018-12-17T01:53:40.803Z,1004.69
2018-12-17T01:54:40.736Z,1004.66
2018-12-17T01:55:40.734Z,1004.67
2018-12-17T01:56:40.723Z,1004.70
2018-12-17T01:57:40.751Z,1004.67
2018-12-17T01:58:40.689Z,1004.67
2018-12-17T01:59:40.670Z,1004.65
2018-12-17T02:00:40.670Z,1004.62
2018-12-17T02:01:40.659Z,1004.66
2018-12-17T02:02:40.644Z,1004.65
2018-12-17T02:03:40.689Z,1004.69
2018-12-17T02:04:40.629Z,1004.67
2018-12-17T02:05:40.611Z,1004.69
2018-12-17T02:06:40.608Z,1004.72
2018-12-17T02:07:40.615Z,1004.70
2018-12-17T02:08:40.610Z,1004.73
2018-12-17T02:09:40.559Z,1004.75
2018-12-17T02:10:40.552Z,1004.74
2018-12-17T02:11:40.538Z,1004.76
2018-12-17T02:12:40.526Z,1004.78
2018-12-17T02:13:40.549Z,1004.82
2018-12-17T02:14:40.536Z,1004.85
2018-12-17T02:15:40.499Z,1004.86
2018-12-17T02:16:40.493Z,1004.87
2018-12-17T02:17:40.476Z,1004.88
2018-12-17T02:18:40.462Z,1004.89
2018-12-17T02:19:40.465Z,1004.89
2018-12-17T02:20:40.497Z,1004.93
2018-12-17T02:21:40.428Z,1004.91
2018-12-17T02:22:40.422Z,1004.94
2018-12-17T02:23:40.420Z,1004.93
2018-12-17T02:24:40.434Z,1004.95
2018-12-17T02:25:40.437Z,1004.92
2018-12-17T02:26:40.409Z,1004.97
2018-12-17T02:27:40.360Z,1004.96
2018-12-17T02:28:40.350Z,1004.96
2018-12-17T02:29:40.354Z,1004.98
2018-12-17T02:30:40.360Z,1005.01
2018-12-17T02:31:40.322Z,1004.99
2018-12-17T02:32:40.324Z,1004.96
2018-12-17T02:33:40.295Z,1004.94
2018-12-17T02:34:40.302Z,1004.93
2018-12-17T02:35:40.277Z,1004.95
2018-12-17T02:36:40.278Z,1004.96
2018-12-17T02:37:40.255Z,1004.96
2018-12-17T02:38:40.298Z,1004.94
2018-12-17T02:39:40.243Z,1004.96
2018-12-17T02:40:40.220Z,1004.99
2018-12-17T02:41:40.225Z,1004.97
2018-12-17T02:42:40.221Z,1005.03
2018-12-17T02:43:40.191Z,1005.02
2018-12-17T02:44:40.226Z,1005.03
2018-12-17T02:45:40.166Z,1005.07
2018-12-17T02:46:40.176Z,1005.10
2018-12-17T02:47:40.142Z,1005.07
2018-12-17T02:48:40.130Z,1005.12
2018-12-17T02:49:40.132Z,1005.15
2018-12-17T02:50:40.131Z,1005.16
2018-12-17T02:51:40.147Z,1005.18
2018-12-17T02:52:40.110Z,1005.15
2018-12-17T02:53:40.104Z,1005.17
2018-12-17T02:54:40.070Z,1005.18
2018-12-17T02:55:40.071Z,1005.18
2018-12-17T02:56:40.086Z,1005.22
2018-12-17T02:57:40.050Z,1005.22
2018-12-17T02:58:43.962Z,1005.27
2018-12-17T02:59:40.030Z,1005.28
2018-12-17T03:00:40.059Z,1005.33
2018-12-17T03:01:39.994Z,1005.37
2018-12-17T03:02:39.980Z,1005.36
2018-12-17T03:03:40.000Z,1005.39
2018-12-17T03:04:40.006Z,1005.39
2018-12-17T03:05:39.990Z,1005.37
2018-12-17T03:06:40.040Z,1005.37
2018-12-17T03:07:39.918Z,1005.39
2018-12-17T03:08:39.919Z,1005.42
2018-12-17T03:09:39.919Z,1005.40
2018-12-17T03:10:39.923Z,1005.45
2018-12-17T03:11:39.889Z,1005.48
2018-12-17T03:12:39.863Z,1005.53
2018-12-17T03:13:39.850Z,1005.53
2018-12-17T03:14:39.885Z,1005.54
2018-12-17T03:15:39.854Z,1005.55
2018-12-17T03:16:39.832Z,1005.58
2018-12-17T03:17:39.819Z,1005.59
2018-12-17T03:18:39.805Z,1005.63
2018-12-17T03:19:39.813Z,1005.63
2018-12-17T03:20:39.797Z,1005.67
2018-12-17T03:21:39.795Z,1005.72
2018-12-17T03:22:39.846Z,1005.71
2018-12-17T03:23:39.750Z,1005.69
2018-12-17T03:24:39.739Z,1005.69
2018-12-17T03:25:39.727Z,1005.66
2018-12-17T03:26:39.720Z,1005.66
2018-12-17T03:27:39.734Z,1005.71
2018-12-17T03:28:39.711Z,1005.72
2018-12-17T03:29:39.685Z,1005.72
2018-12-17T03:30:39.689Z,1005.70
2018-12-17T03:31:39.681Z,1005.77
2018-12-17T03:32:39.672Z,1005.80
2018-12-17T03:33:39.660Z,1005.80
2018-12-17T03:34:40.019Z,1005.82
2018-12-17T03:35:39.630Z,1005.79
2018-12-17T03:36:39.611Z,1005.81
2018-12-17T03:37:39.589Z,1005.80
2018-12-17T03:38:39.584Z,1005.77
2018-12-17T03:39:39.603Z,1005.82
2018-12-17T03:40:39.560Z,1005.81
2018-12-17T03:41:39.550Z,1005.84
2018-12-17T03:42:39.535Z,1005.79
2018-12-17T03:43:39.531Z,1005.87
2018-12-17T03:44:39.534Z,1005.86
2018-12-17T03:45:39.521Z,1005.86
2018-12-17T03:46:39.496Z,1005.90
2018-12-17T03:47:39.495Z,1005.90
2018-12-17T03:48:39.464Z,1005.95
2018-12-17T03:49:39.472Z,1005.90
2018-12-17T03:50:39.456Z,1005.96
2018-12-17T03:51:39.435Z,1005.94
2018-12-17T03:52:39.422Z,1005.93
2018-12-17T03:53:39.422Z,1005.96
2018-12-17T03:54:39.433Z,1006.02
2018-12-17T03:55:39.400Z,1006.02
2018-12-17T03:56:39.391Z,1006.02
2018-12-17T03:57:39.368Z,1006.02
2018-12-17T03:58:39.358Z,1005.98
2018-12-17T03:59:39.438Z,1005.99
2018-12-17T04:00:39.341Z,1005.95
2018-12-17T04:01:39.328Z,1005.99
2018-12-17T04:02:39.341Z,1005.97
2018-12-17T04:03:39.307Z,1006.00
2018-12-17T04:04:39.316Z,1006.00
2018-12-17T04:05:39.277Z,1006.01
2018-12-17T04:06:39.274Z,1006.05
2018-12-17T04:07:39.275Z,1006.06
2018-12-17T04:08:39.272Z,1006.08
2018-12-17T04:09:39.259Z,1006.11
2018-12-17T04:10:40.051Z,1006.11
2018-12-17T04:11:39.216Z,1006.19
2018-12-17T04:12:39.203Z,1006.17
2018-12-17T04:13:39.208Z,1006.20
2018-12-17T04:14:39.211Z,1006.16
2018-12-17T04:15:39.171Z,1006.19
2018-12-17T04:16:39.164Z,1006.22
2018-12-17T04:17:39.176Z,1006.21
2018-12-17T04:18:39.144Z,1006.22
2018-12-17T04:19:39.145Z,1006.23
2018-12-17T04:20:39.121Z,1006.26
2018-12-17T04:21:39.101Z,1006.25
2018-12-17T04:22:39.110Z,1006.23
2018-12-17T04:23:39.081Z,1006.27
2018-12-17T04:24:39.252Z,1006.29
2018-12-17T04:25:39.061Z,1006.33
2018-12-17T04:26:39.992Z,1006.28
2018-12-17T04:27:39.046Z,1006.31
2018-12-17T04:28:39.047Z,1006.33
2018-12-17T04:29:39.020Z,1006.30
2018-12-17T04:30:39.023Z,1006.33
2018-12-17T04:31:38.992Z,1006.35
2018-12-17T04:32:38.986Z,1006.33
2018-12-17T04:33:39.029Z,1006.33
2018-12-17T04:34:38.965Z,1006.34
2018-12-17T04:35:38.958Z,1006.33
2018-12-17T04:36:38.935Z,1006.34
2018-12-17T04:37:38.993Z,1006.36
2018-12-17T04:38:38.939Z,1006.37
2018-12-17T04:39:38.909Z,1006.39
2018-12-17T04:40:38.910Z,1006.39
2018-12-17T04:41:38.885Z,1006.39
2018-12-17T04:42:38.885Z,1006.36
2018-12-17T04:43:38.859Z,1006.39
2018-12-17T04:44:38.855Z,1006.38
2018-12-17T04:45:38.851Z,1006.39
2018-12-17T04:46:38.859Z,1006.43
2018-12-17T04:47:38.830Z,1006.44
2018-12-17T04:48:38.806Z,1006.41
2018-12-17T04:49:38.799Z,1006.45
2018-12-17T04:50:38.811Z,1006.41
2018-12-17T04:51:38.790Z,1006.40
2018-12-17T04:52:38.788Z,1006.38
2018-12-17T04:53:38.773Z,1006.39
2018-12-17T04:54:38.750Z,1006.36
2018-12-17T04:55:38.770Z,1006.36
2018-12-17T04:56:38.719Z,1006.35
2018-12-17T04:57:38.720Z,1006.37
2018-12-17T04:58:38.695Z,1006.42
2018-12-17T04:59:38.699Z,1006.34
2018-12-17T05:00:38.726Z,1006.38
2018-12-17T05:01:38.678Z,1006.41
2018-12-17T05:02:38.653Z,1006.38
2018-12-17T05:03:38.667Z,1006.45
2018-12-17T05:04:38.631Z,1006.44
2018-12-17T05:05:38.635Z,1006.44
2018-12-17T05:06:38.620Z,1006.44
2018-12-17T05:07:38.615Z,1006.47
2018-12-17T05:08:38.585Z,1006.50
2018-12-17T05:09:38.586Z,1006.48
2018-12-17T05:10:38.591Z,1006.51
2018-12-17T05:11:38.556Z,1006.58
2018-12-17T05:12:38.544Z,1006.55
2018-12-17T05:13:38.528Z,1006.55
2018-12-17T05:14:38.558Z,1006.60
2018-12-17T05:15:38.540Z,1006.64
2018-12-17T05:16:38.494Z,1006.63
2018-12-17T05:17:38.491Z,1006.61
2018-12-17T05:18:38.485Z,1006.66
2018-12-17T05:19:38.475Z,1006.67
2018-12-17T05:20:38.465Z,1006.71
2018-12-17T05:21:38.445Z,1006.70
2018-12-17T05:22:38.429Z,1006.69
2018-12-17T05:23:38.438Z,1006.73
2018-12-17T05:24:38.420Z,1006.73
2018-12-17T05:25:38.415Z,1006.73
2018-12-17T05:26:38.384Z,1006.76
2018-12-17T05:27:38.376Z,1006.80
2018-12-17T05:28:38.367Z,1006.81
2018-12-17T05:29:38.361Z,1006.84
2018-12-17T05:30:38.347Z,1006.83
2018-12-17T05:31:38.335Z,1006.86
2018-12-17T05:32:38.316Z,1006.83
2018-12-17T05:33:38.311Z,1006.81
2018-12-17T05:34:38.356Z,1006.86
2018-12-17T05:35:38.309Z,1006.86
2018-12-17T05:36:38.288Z,1006.89
2018-12-17T05:37:38.289Z,1006.89
2018-12-17T05:38:38.254Z,1006.92
2018-12-17T05:39:38.241Z,1006.93
2018-12-17T05:40:38.239Z,1006.96
2018-12-17T05:41:38.217Z,1006.96
2018-12-17T05:42:38.221Z,1007.01
2018-12-17T05:43:38.726Z,1007.02
2018-12-17T05:44:38.211Z,1007.02
2018-12-17T05:45:38.183Z,1007.04
2018-12-17T05:46:38.175Z,1007.04
2018-12-17T05:47:38.155Z,1007.02
2018-12-17T05:48:38.157Z,1007.04
2018-12-17T05:49:38.156Z,1007.07
2018-12-17T05:50:38.139Z,1007.02
2018-12-17T05:51:38.134Z,1007.10
2018-12-17T05:52:38.120Z,1007.05
2018-12-17T05:53:38.101Z,1007.07
2018-12-17T05:54:38.083Z,1007.09
2018-12-17T05:55:38.101Z,1007.17
2018-12-17T05:56:38.054Z,1007.11
2018-12-17T05:57:38.047Z,1007.09
2018-12-17T05:58:38.028Z,1007.11
2018-12-17T05:59:38.037Z,1007.11
2018-12-17T06:00:38.039Z,1007.12
2018-12-17T06:01:37.996Z,1007.14
2018-12-17T06:02:37.985Z,1007.12
2018-12-17T06:03:37.988Z,1007.17
2018-12-17T06:04:37.985Z,1007.16
2018-12-17T06:05:37.963Z,1007.16
2018-12-17T06:06:37.975Z,1007.15
2018-12-17T06:07:37.934Z,1007.19
2018-12-17T06:08:37.924Z,1007.19
2018-12-17T06:09:37.908Z,1007.23
2018-12-17T06:10:37.908Z,1007.27
2018-12-17T06:11:37.901Z,1007.28
2018-12-17T06:12:37.894Z,1007.31
2018-12-17T06:13:37.903Z,1007.35
2018-12-17T06:14:37.908Z,1007.37
2018-12-17T06:15:37.912Z,1007.37
2018-12-17T06:16:37.838Z,1007.39
2018-12-17T06:17:37.821Z,1007.38
2018-12-17T06:18:37.821Z,1007.38
2018-12-17T06:19:37.801Z,1007.35
2018-12-17T06:20:37.803Z,1007.38
2018-12-17T06:21:37.832Z,1007.39
2018-12-17T06:22:37.776Z,1007.42
2018-12-17T06:23:37.756Z,1007.47
2018-12-17T06:24:37.763Z,1007.49
2018-12-17T06:25:37.732Z,1007.46
2018-12-17T06:26:37.752Z,1007.52
2018-12-17T06:27:38.616Z,1007.54
2018-12-17T06:28:37.736Z,1007.54
2018-12-17T06:29:37.763Z,1007.53
2018-12-17T06:30:37.676Z,1007.50
2018-12-17T06:31:37.695Z,1007.49
2018-12-17T06:32:37.657Z,1007.53
2018-12-17T06:33:37.646Z,1007.53
2018-12-17T06:34:37.653Z,1007.58
2018-12-17T06:35:37.627Z,1007.58
2018-12-17T06:36:37.651Z,1007.55
2018-12-17T06:37:37.602Z,1007.62
2018-12-17T06:38:37.614Z,1007.58
2018-12-17T06:39:37.585Z,1007.64
2018-12-17T06:40:37.594Z,1007.74
2018-12-17T06:41:37.576Z,1007.75
2018-12-17T06:42:37.546Z,1007.80
2018-12-17T06:43:37.596Z,1007.80
2018-12-17T06:44:37.524Z,1007.80
2018-12-17T06:45:37.509Z,1007.79
2018-12-17T06:46:37.510Z,1007.75
2018-12-17T06:47:37.504Z,1007.76
2018-12-17T06:48:37.484Z,1007.74
2018-12-17T06:49:37.492Z,1007.75
2018-12-17T06:50:37.455Z,1007.78
2018-12-17T06:51:37.463Z,1007.77
2018-12-17T06:52:37.435Z,1007.74
2018-12-17T06:53:37.439Z,1007.75
2018-12-17T06:54:37.423Z,1007.83
2018-12-17T06:55:37.411Z,1007.82
2018-12-17T06:56:37.413Z,1007.84
2018-12-17T06:57:37.422Z,1007.87
2018-12-17T06:58:37.388Z,1007.91
2018-12-17T06:59:42.688Z,1007.88
2018-12-17T07:00:38.363Z,1007.84
2018-12-17T07:01:37.349Z,1007.86
2018-12-17T07:02:37.345Z,1007.88
2018-12-17T07:03:37.323Z,1007.91
2018-12-17T07:04:37.332Z,1007.90
2018-12-17T07:05:37.340Z,1007.90
2018-12-17T07:06:37.293Z,1007.88
2018-12-17T07:07:37.276Z,1007.88
2018-12-17T07:08:37.256Z,1007.92
2018-12-17T07:09:37.253Z,1007.95
2018-12-17T07:10:37.266Z,1007.96
2018-12-17T07:11:37.273Z,1008.02
2018-12-17T07:12:37.232Z,1007.99
2018-12-17T07:13:37.211Z,1008.00
2018-12-17T07:14:37.196Z,1007.95
2018-12-17T07:15:37.237Z,1007.96
2018-12-17T07:16:37.198Z,1007.95
2018-12-17T07:17:37.157Z,1007.95
2018-12-17T07:18:37.155Z,1008.00
2018-12-17T07:19:37.151Z,1008.02
2018-12-17T07:20:37.141Z,1008.06
2018-12-17T07:21:37.131Z,1008.10
2018-12-17T07:22:37.114Z,1008.11
2018-12-17T07:23:37.098Z,1008.16
2018-12-17T07:24:37.098Z,1008.23
2018-12-17T07:25:37.070Z,1008.23
2018-12-17T07:26:37.127Z,1008.20
2018-12-17T07:27:37.102Z,1008.21
2018-12-17T07:28:37.060Z,1008.20
2018-12-17T07:29:37.040Z,1008.26
2018-12-17T07:30:37.028Z,1008.27
2018-12-17T07:31:37.027Z,1008.28
2018-12-17T07:32:36.999Z,1008.27
2018-12-17T07:33:37.001Z,1008.28
2018-12-17T07:34:36.983Z,1008.30
2018-12-17T07:35:36.963Z,1008.33
2018-12-17T07:36:36.967Z,1008.43
2018-12-17T07:37:36.985Z,1008.42
2018-12-17T07:38:36.935Z,1008.50
2018-12-17T07:39:36.915Z,1008.55
2018-12-17T07:40:36.920Z,1008.60
2018-12-17T07:41:36.904Z,1008.59
2018-12-17T07:42:36.906Z,1008.60
2018-12-17T07:43:36.930Z,1008.59
2018-12-17T07:44:36.871Z,1008.64
2018-12-17T07:45:36.850Z,1008.65
2018-12-17T07:46:36.847Z,1008.70
2018-12-17T07:47:36.831Z,1008.66
2018-12-17T07:48:36.817Z,1008.72
2018-12-17T07:49:36.806Z,1008.73
2018-12-17T07:50:36.818Z,1008.71
2018-12-17T07:51:36.843Z,1008.73
2018-12-17T07:52:36.776Z,1008.72
2018-12-17T07:53:36.773Z,1008.72
2018-12-17T07:54:36.780Z,1008.78
2018-12-17T07:55:36.739Z,1008.78
2018-12-17T07:56:36.774Z,1008.84
2018-12-17T07:57:36.738Z,1008.83
2018-12-17T07:58:36.716Z,1008.83
2018-12-17T07:59:36.761Z,1008.81
2018-12-17T08:00:36.700Z,1008.89
2018-12-17T08:01:37.044Z,1008.87
2018-12-17T08:02:36.682Z,1008.85
2018-12-17T08:03:36.650Z,1008.85
2018-12-17T08:04:36.655Z,1008.85
2018-12-17T08:05:36.636Z,1008.87
2018-12-17T08:06:36.648Z,1008.88
2018-12-17T08:07:36.649Z,1008.86
2018-12-17T08:08:36.599Z,1008.86
2018-12-17T08:09:36.586Z,1008.86
2018-12-17T08:10:36.587Z,1008.88
2018-12-17T08:11:36.574Z,1008.92
2018-12-17T08:12:36.580Z,1008.91
2018-12-17T08:13:36.566Z,1008.96
2018-12-17T08:14:36.568Z,1009.03
2018-12-17T08:15:36.536Z,1009.05
2018-12-17T08:16:36.528Z,1009.06
2018-12-17T08:17:36.510Z,1009.13
2018-12-17T08:18:36.509Z,1009.15
2018-12-17T08:19:36.476Z,1009.16
2018-12-17T08:20:36.487Z,1009.22
2018-12-17T08:21:36.497Z,1009.16
2018-12-17T08:22:36.447Z,1009.13
2018-12-17T08:23:36.441Z,1009.20
2018-12-17T08:24:36.433Z,1009.17
2018-12-17T08:25:36.417Z,1009.21
2018-12-17T08:26:36.395Z,1009.19
2018-12-17T08:27:36.398Z,1009.23
2018-12-17T08:28:36.378Z,1009.23
2018-12-17T08:29:36.385Z,1009.23
2018-12-17T08:30:36.356Z,1009.21
2018-12-17T08:31:36.340Z,1009.23
2018-12-17T08:32:36.346Z,1009.25
2018-12-17T08:33:36.320Z,1009.28
2018-12-17T08:34:36.310Z,1009.31
2018-12-17T08:35:36.307Z,1009.31
2018-12-17T08:36:36.322Z,1009.35
2018-12-17T08:37:36.315Z,1009.32
2018-12-17T08:38:36.292Z,1009.35
2018-12-17T08:39:36.260Z,1009.29
2018-12-17T08:40:36.246Z,1009.29
2018-12-17T08:41:36.248Z,1009.30
2018-12-17T08:42:36.235Z,1009.31
2018-12-17T08:43:36.233Z,1009.32
2018-12-17T08:44:36.198Z,1009.32
2018-12-17T08:45:36.196Z,1009.33
2018-12-17T08:46:36.183Z,1009.38
2018-12-17T08:47:36.182Z,1009.37
2018-12-17T08:48:36.160Z,1009.35
2018-12-17T08:49:36.162Z,1009.38
2018-12-17T08:50:36.131Z,1009.39
2018-12-17T08:51:36.124Z,1009.39
2018-12-17T08:52:36.128Z,1009.41
2018-12-17T08:53:36.138Z,1009.45
2018-12-17T08:54:36.131Z,1009.47
2018-12-17T08:55:36.101Z,1009.49
2018-12-17T08:56:36.107Z,1009.51
2018-12-17T08:57:38.095Z,1009.55
2018-12-17T08:58:36.055Z,1009.55
2018-12-17T08:59:36.040Z,1009.57
2018-12-17T09:00:36.034Z,1009.60
2018-12-17T09:01:36.011Z,1009.68
2018-12-17T09:02:36.017Z,1009.69
2018-12-17T09:03:35.999Z,1009.68
2018-12-17T09:04:35.980Z,1009.70
2018-12-17T09:05:36.011Z,1009.72
2018-12-17T09:06:36.028Z,1009.67
2018-12-17T09:07:35.974Z,1009.71
2018-12-17T09:08:35.933Z,1009.73
2018-12-17T09:09:35.927Z,1009.71
2018-12-17T09:10:35.915Z,1009.76
2018-12-17T09:11:35.915Z,1009.78
2018-12-17T09:12:35.919Z,1009.81
2018-12-17T09:13:35.880Z,1009.79
2018-12-17T09:14:35.871Z,1009.81
2018-12-17T09:15:35.863Z,1009.84
2018-12-17T09:16:35.903Z,1009.85
2018-12-17T09:17:35.854Z,1009.82
2018-12-17T09:18:35.828Z,1009.84
2018-12-17T09:19:35.812Z,1009.86
2018-12-17T09:20:35.824Z,1009.88
2018-12-17T09:21:35.792Z,1009.85
2018-12-17T09:22:35.805Z,1009.87
2018-12-17T09:23:35.780Z,1009.87
2018-12-17T09:24:35.763Z,1009.86
2018-12-17T09:25:35.900Z,1009.88
2018-12-17T09:26:35.737Z,1009.89
2018-12-17T09:27:35.749Z,1009.89
2018-12-17T09:28:35.732Z,1009.89
2018-12-17T09:29:35.716Z,1009.88
2018-12-17T09:30:41.347Z,1009.92
2018-12-17T09:31:36.678Z,1009.93
2018-12-17T09:32:35.738Z,1009.97
2018-12-17T09:33:35.662Z,1010.01
2018-12-17T09:34:35.650Z,1010.00
2018-12-17T09:35:35.652Z,1010.00
2018-12-17T09:36:35.624Z,1010.04
2018-12-17T09:37:35.670Z,1010.00
2018-12-17T09:38:35.607Z,1009.97
2018-12-17T09:39:35.594Z,1010.01
2018-12-17T09:40:35.593Z,1009.97
2018-12-17T09:41:35.597Z,1009.97
2018-12-17T09:42:35.575Z,1009.98
2018-12-17T09:43:35.560Z,1010.00
2018-12-17T09:44:35.553Z,1010.02
2018-12-17T09:45:35.534Z,1010.02
2018-12-17T09:46:35.520Z,1010.03
2018-12-17T09:47:35.524Z,1010.08
2018-12-17T09:48:35.504Z,1010.00
2018-12-17T09:49:35.485Z,1009.97
2018-12-17T09:50:35.478Z,1010.01
2018-12-17T09:51:35.462Z,1009.98
2018-12-17T09:52:35.457Z,1010.03
2018-12-17T09:53:35.466Z,1010.08
2018-12-17T09:54:35.429Z,1010.01
2018-12-17T09:55:36.373Z,1010.04
2018-12-17T09:56:35.424Z,1010.01
2018-12-17T09:57:35.405Z,1010.03
2018-12-17T09:58:35.399Z,1010.03
2018-12-17T09:59:35.369Z,1010.07
2018-12-17T10:00:35.361Z,1010.12
2018-12-17T10:01:35.348Z,1010.09
2018-12-17T10:02:35.357Z,1010.08
2018-12-17T10:03:35.330Z,1010.12
2018-12-17T10:04:35.336Z,1010.13
2018-12-17T10:05:35.322Z,1010.09
2018-12-17T10:06:35.294Z,1010.09
2018-12-17T10:07:35.307Z,1010.12
2018-12-17T10:08:35.272Z,1010.11
2018-12-17T10:09:35.271Z,1010.09
2018-12-17T10:10:35.277Z,1010.15
2018-12-17T10:11:35.254Z,1010.12
2018-12-17T10:12:35.230Z,1010.15
2018-12-17T10:13:35.228Z,1010.15
2018-12-17T10:14:35.203Z,1010.15
2018-12-17T10:15:35.205Z,1010.20
2018-12-17T10:16:35.196Z,1010.11
2018-12-17T10:17:35.170Z,1010.18
2018-12-17T10:18:36.998Z,1010.12
2018-12-17T10:19:35.158Z,1010.15
2018-12-17T10:20:35.137Z,1010.16
2018-12-17T10:21:35.133Z,1010.14
2018-12-17T10:22:35.128Z,1010.11
2018-12-17T10:23:35.121Z,1010.07
2018-12-17T10:24:35.098Z,1010.10
2018-12-17T10:25:35.088Z,1010.11
2018-12-17T10:26:35.070Z,1010.09
2018-12-17T10:27:35.065Z,1010.04
2018-12-17T10:28:35.073Z,1010.01
2018-12-17T10:29:35.036Z,1010.02
2018-12-17T10:30:35.029Z,1010.02
2018-12-17T10:31:35.026Z,1010.05
2018-12-17T10:32:35.016Z,1010.05
2018-12-17T10:33:35.072Z,1010.07
2018-12-17T10:34:34.986Z,1010.04
2018-12-17T10:35:34.989Z,1010.04
2018-12-17T10:36:34.964Z,1010.10
2018-12-17T10:37:34.966Z,1010.10
2018-12-17T10:38:34.959Z,1010.07
2018-12-17T10:39:34.949Z,1010.08
2018-12-17T10:40:34.985Z,1010.07
2018-12-17T10:41:34.906Z,1010.06
2018-12-17T10:42:34.898Z,1010.03
2018-12-17T10:43:34.961Z,1010.05
2018-12-17T10:44:34.907Z,1010.03
2018-12-17T10:45:34.877Z,1010.04
2018-12-17T10:46:34.892Z,1009.99
2018-12-17T10:47:34.838Z,1010.01
2018-12-17T10:48:34.841Z,1010.07
2018-12-17T10:49:34.847Z,1010.08
2018-12-17T10:50:34.808Z,1010.05
2018-12-17T10:51:34.872Z,1010.08
2018-12-17T10:52:34.790Z,1010.03
2018-12-17T10:53:34.784Z,1010.09
2018-12-17T10:54:34.829Z,1010.07
2018-12-17T10:55:34.753Z,1010.06
2018-12-17T10:56:34.745Z,1010.05
2018-12-17T10:57:34.730Z,1010.07
2018-12-17T10:58:34.752Z,1010.08
2018-12-17T10:59:34.724Z,1010.10
2018-12-17T11:00:39.362Z,1010.11
2018-12-17T11:01:34.757Z,1010.17
2018-12-17T11:02:34.673Z,1010.11
2018-12-17T11:03:34.682Z,1010.12
2018-12-17T11:04:34.649Z,1010.09
2018-12-17T11:05:34.639Z,1010.12
2018-12-17T11:06:34.647Z,1010.09
2018-12-17T11:07:34.622Z,1010.09
2018-12-17T11:08:34.625Z,1010.16
2018-12-17T11:09:34.602Z,1010.11
2018-12-17T11:10:34.587Z,1010.12
2018-12-17T11:11:34.578Z,1010.14
2018-12-17T11:12:34.581Z,1010.09
2018-12-17T11:13:34.592Z,1010.11
2018-12-17T11:14:34.546Z,1010.10
2018-12-17T11:15:34.552Z,1010.15
2018-12-17T11:16:34.534Z,1010.09
2018-12-17T11:17:34.519Z,1010.18
2018-12-17T11:18:34.516Z,1010.15
2018-12-17T11:19:34.487Z,1010.09
2018-12-17T11:20:34.490Z,1010.10
2018-12-17T11:21:34.466Z,1010.04
2018-12-17T11:22:34.452Z,1010.04
2018-12-17T11:23:34.465Z,1010.06
2018-12-17T11:24:34.433Z,1010.05
2018-12-17T11:25:34.454Z,1010.12
2018-12-17T11:26:34.438Z,1010.11
2018-12-17T11:27:34.432Z,1010.08
2018-12-17T11:28:34.409Z,1010.11
2018-12-17T11:29:34.384Z,1010.10
2018-12-17T11:30:34.378Z,1010.09
2018-12-17T11:31:34.372Z,1010.10
2018-12-17T11:32:34.371Z,1010.08
2018-12-17T11:33:34.371Z,1010.13
2018-12-17T11:34:34.325Z,1010.09
2018-12-17T11:35:34.389Z,1010.10
2018-12-17T11:36:34.299Z,1010.07
2018-12-17T11:37:34.295Z,1010.11
2018-12-17T11:38:34.302Z,1010.12
2018-12-17T11:39:34.277Z,1010.12
2018-12-17T11:40:34.260Z,1010.11
2018-12-17T11:41:34.246Z,1010.08
2018-12-17T11:42:34.255Z,1010.14
2018-12-17T11:43:34.259Z,1010.14
2018-12-17T11:44:34.228Z,1010.11
2018-12-17T11:45:34.245Z,1010.11
2018-12-17T11:46:34.196Z,1010.09
2018-12-17T11:47:34.179Z,1010.12
2018-12-17T11:48:34.194Z,1010.10
2018-12-17T11:49:34.171Z,1010.02
2018-12-17T11:50:34.216Z,1010.04
2018-12-17T11:51:34.133Z,1010.05
2018-12-17T11:52:34.128Z,1010.05
2018-12-17T11:53:34.151Z,1010.08
2018-12-17T11:54:34.119Z,1010.02
2018-12-17T11:55:34.107Z,1010.01
2018-12-17T11:56:34.108Z,1010.02
2018-12-17T11:57:34.066Z,1010.02
2018-12-17T11:58:34.068Z,1010.02
2018-12-17T11:59:34.063Z,1010.00
2018-12-17T12:00:34.036Z,1010.08
2018-12-17T12:01:34.038Z,1010.05
2018-12-17T12:02:34.024Z,1010.04
2018-12-17T12:03:34.054Z,1010.10
2018-12-17T12:04:33.995Z,1010.12
2018-12-17T12:05:34.002Z,1010.14